createdAt,value
2022-12-25T00:00:20.744Z,8.10
2022-12-25T00:02:22.877Z,8.57
2022-12-25T00:04:24.589Z,7.93
2022-12-25T00:06:26.252Z,7.22
2022-12-25T00:08:27.887Z,9.40
2022-12-25T00:10:29.467Z,9.03
2022-12-25T00:12:32.621Z,7.47
2022-12-25T00:14:34.245Z,7.87
2022-12-25T00:16:35.918Z,5.53
2022-12-25T00:18:37.500Z,7.95
2022-12-25T00:20:39.037Z,9.00
2022-12-25T00:22:40.642Z,7.53
2022-12-25T00:24:42.164Z,5.80
2022-12-25T00:26:43.755Z,6.80
2022-12-25T00:28:46.807Z,7.23
2022-12-25T00:30:48.463Z,7.13
2022-12-25T00:32:50.063Z,7.40
2022-12-25T00:34:51.700Z,7.07
2022-12-25T00:36:53.268Z,7.33
2022-12-25T00:38:54.917Z,7.53
2022-12-25T00:40:56.520Z,8.57
2022-12-25T00:42:58.329Z,7.63
2022-12-25T00:45:01.327Z,4.80
2022-12-25T00:47:03.586Z,5.00
2022-12-25T00:49:05.236Z,9.60
2022-12-25T00:51:17.709Z,7.20
2022-12-25T00:53:19.331Z,4.07
2022-12-25T00:55:20.882Z,7.17
2022-12-25T00:57:22.517Z,6.07
2022-12-25T00:59:24.142Z,5.43
2022-12-25T01:01:27.182Z,11.07
2022-12-25T01:03:29.018Z,8.23
2022-12-25T01:05:30.746Z,9.73
2022-12-25T01:07:32.324Z,8.45
2022-12-25T01:09:33.892Z,6.47
2022-12-25T01:11:35.522Z,5.83
2022-12-25T01:13:38.096Z,8.75
2022-12-25T01:15:39.704Z,7.80
2022-12-25T01:17:43.118Z,5.93
2022-12-25T01:19:44.749Z,7.28
2022-12-25T01:21:46.335Z,6.10
2022-12-25T01:23:48.786Z,6.03
2022-12-25T01:25:50.359Z,13.10
2022-12-25T01:27:51.958Z,6.70
2022-12-25T01:29:53.792Z,9.10
2022-12-25T01:31:55.453Z,6.40
2022-12-25T01:33:58.395Z,5.60
2022-12-25T01:36:00.013Z,6.80
2022-12-25T01:38:01.606Z,4.50
2022-12-25T01:40:03.553Z,6.27
2022-12-25T01:42:05.294Z,5.50
2022-12-25T01:44:27.863Z,6.47
2022-12-25T01:46:30.205Z,6.20
2022-12-25T01:48:35.587Z,5.00
2022-12-25T01:50:43.659Z,6.23
2022-12-25T01:52:46.702Z,8.37
2022-12-25T01:54:51.739Z,4.83
2022-12-25T01:56:57.344Z,6.60
2022-12-25T01:58:59.761Z,5.68
2022-12-25T02:01:01.481Z,8.30
2022-12-25T02:03:03.838Z,8.50
2022-12-25T02:05:10.253Z,5.95
2022-12-25T02:07:14.707Z,7.70
2022-12-25T02:09:16.313Z,6.25
2022-12-25T02:11:17.951Z,6.23
2022-12-25T02:13:20.231Z,9.23
2022-12-25T02:15:27.813Z,6.28
2022-12-25T02:17:35.743Z,6.35
2022-12-25T02:19:56.467Z,7.25
2022-12-25T02:22:10.846Z,6.15
2022-12-25T02:24:52.348Z,9.07
2022-12-25T02:27:11.367Z,6.55
2022-12-25T02:29:21.463Z,6.13
2022-12-25T02:31:31.314Z,6.60
2022-12-25T02:33:39.684Z,5.27
2022-12-25T02:35:43.759Z,4.53
2022-12-25T02:37:52.390Z,5.70
2022-12-25T02:39:59.598Z,7.10
2022-12-25T02:42:05.972Z,5.53
2022-12-25T02:44:12.990Z,8.30
2022-12-25T02:46:20.378Z,6.50
2022-12-25T02:48:26.116Z,7.30
2022-12-25T02:50:27.943Z,4.53
2022-12-25T02:52:30.652Z,8.80
2022-12-25T02:54:36.511Z,7.33
2022-12-25T02:56:40.249Z,6.47
2022-12-25T02:58:44.461Z,6.05
2022-12-25T03:00:48.762Z,5.83
2022-12-25T03:02:52.924Z,5.47
2022-12-25T03:04:57.688Z,4.67
2022-12-25T03:07:07.202Z,7.60
2022-12-25T03:09:12.451Z,7.20
2022-12-25T03:11:14.055Z,8.87
2022-12-25T03:13:20.111Z,5.80
2022-12-25T03:15:22.575Z,7.23
2022-12-25T03:17:24.652Z,5.87
2022-12-25T03:19:31.654Z,5.07
2022-12-25T03:21:33.274Z,5.80
2022-12-25T03:23:37.437Z,6.80
2022-12-25T03:25:39.012Z,7.15
2022-12-25T03:27:44.250Z,6.17
2022-12-25T03:29:45.929Z,5.05
2022-12-25T03:31:54.875Z,10.50
2022-12-25T03:34:08.004Z,7.88
2022-12-25T03:36:18.377Z,7.22
2022-12-25T03:38:30.187Z,8.93
2022-12-25T03:40:38.936Z,5.45
2022-12-25T03:42:51.291Z,7.13
2022-12-25T03:45:00.358Z,5.95
2022-12-25T03:47:09.851Z,4.32
2022-12-25T03:49:20.024Z,5.63
2022-12-25T03:51:29.881Z,7.38
2022-12-25T03:53:39.103Z,4.87
2022-12-25T03:55:42.209Z,9.70
2022-12-25T03:57:46.780Z,6.07
2022-12-25T03:59:48.343Z,4.60
2022-12-25T04:01:50.467Z,7.17
2022-12-25T04:03:52.096Z,5.60
2022-12-25T04:05:53.687Z,7.90
2022-12-25T04:07:56.656Z,7.23
2022-12-25T04:09:58.247Z,11.63
2022-12-25T04:12:02.712Z,8.30
2022-12-25T04:14:07.779Z,7.15
2022-12-25T04:16:09.315Z,7.20
2022-12-25T04:18:11.130Z,8.27
2022-12-25T04:20:12.735Z,6.67
2022-12-25T04:22:14.305Z,7.90
2022-12-25T04:24:17.228Z,8.65
2022-12-25T04:26:19.013Z,9.40
2022-12-25T04:28:20.524Z,9.68
2022-12-25T04:30:22.089Z,9.00
2022-12-25T04:32:23.621Z,6.82
2022-12-25T04:34:25.186Z,5.83
2022-12-25T04:36:26.708Z,8.83
2022-12-25T04:38:28.240Z,7.07
2022-12-25T04:40:31.145Z,7.47
2022-12-25T04:42:32.946Z,5.95
2022-12-25T04:44:34.569Z,10.73
2022-12-25T04:46:36.284Z,7.90
2022-12-25T04:48:37.879Z,9.33
2022-12-25T04:50:39.478Z,7.80
2022-12-25T04:52:41.294Z,7.97
2022-12-25T04:54:42.824Z,12.60
2022-12-25T04:56:46.170Z,6.60
2022-12-25T04:58:48.121Z,7.23
2022-12-25T05:00:49.695Z,10.50
2022-12-25T05:02:51.534Z,10.10
2022-12-25T05:04:53.261Z,10.20
2022-12-25T05:06:54.889Z,8.77
2022-12-25T05:08:56.544Z,5.88
2022-12-25T05:10:58.197Z,8.77
2022-12-25T05:13:01.091Z,8.13
2022-12-25T05:15:02.758Z,8.98
2022-12-25T05:17:04.305Z,7.20
2022-12-25T05:19:05.853Z,6.05
2022-12-25T05:21:09.126Z,7.77
2022-12-25T05:23:11.258Z,9.13
2022-12-25T05:25:12.771Z,5.90
2022-12-25T05:27:14.975Z,11.20
2022-12-25T05:29:17.882Z,8.18
2022-12-25T05:31:20.018Z,8.07
2022-12-25T05:33:21.618Z,6.40
2022-12-25T05:35:23.128Z,9.13
2022-12-25T05:37:24.665Z,6.43
2022-12-25T05:39:26.297Z,6.13
2022-12-25T05:41:33.799Z,6.03
2022-12-25T05:43:35.931Z,5.28
2022-12-25T05:45:39.001Z,9.20
2022-12-25T05:47:40.585Z,5.47
2022-12-25T05:49:42.654Z,7.40
2022-12-25T05:51:44.233Z,5.53
2022-12-25T05:53:45.796Z,7.60
2022-12-25T05:55:47.411Z,8.03
2022-12-25T05:57:48.960Z,5.33
2022-12-25T05:59:50.531Z,7.00
2022-12-25T06:01:53.541Z,7.35
2022-12-25T06:03:56.026Z,7.00
2022-12-25T06:05:57.661Z,6.47
2022-12-25T06:07:59.215Z,8.70
2022-12-25T06:10:00.881Z,6.47
2022-12-25T06:12:02.496Z,7.87
2022-12-25T06:14:04.025Z,6.50
2022-12-25T06:16:06.617Z,7.00
2022-12-25T06:18:09.614Z,8.55
2022-12-25T06:20:11.692Z,8.18
2022-12-25T06:22:13.227Z,7.60
2022-12-25T06:24:21.036Z,6.97
2022-12-25T06:26:23.082Z,7.72
2022-12-25T06:28:24.663Z,8.10
2022-12-25T06:30:26.208Z,11.23
2022-12-25T06:32:27.841Z,8.88
2022-12-25T06:34:30.823Z,10.33
2022-12-25T06:36:32.511Z,12.93
2022-12-25T06:38:34.369Z,13.30
2022-12-25T06:40:35.923Z,14.50
2022-12-25T06:42:37.494Z,13.43
2022-12-25T06:44:39.032Z,12.90
2022-12-25T06:46:40.629Z,14.77
2022-12-25T06:48:43.037Z,23.13
2022-12-25T06:50:45.974Z,17.10
2022-12-25T06:52:47.513Z,11.30
2022-12-25T06:54:49.038Z,8.63
2022-12-25T06:56:50.578Z,8.10
2022-12-25T06:58:53.810Z,6.47
2022-12-25T07:00:55.712Z,7.60
2022-12-25T07:02:57.438Z,8.70
2022-12-25T07:05:00.562Z,7.65
2022-12-25T07:07:08.773Z,7.00
2022-12-25T07:09:10.932Z,7.68
2022-12-25T07:11:12.491Z,5.93
2022-12-25T07:13:14.030Z,7.40
2022-12-25T07:15:15.642Z,8.07
2022-12-25T07:17:17.740Z,6.67
2022-12-25T07:19:19.370Z,6.75
2022-12-25T07:21:21.454Z,8.07
2022-12-25T07:23:24.333Z,9.20
2022-12-25T07:25:25.835Z,7.10
2022-12-25T07:27:27.337Z,8.83
2022-12-25T07:29:28.869Z,6.10
2022-12-25T07:31:33.212Z,5.83
2022-12-25T07:33:34.954Z,7.57
2022-12-25T07:35:36.547Z,12.50
2022-12-25T07:37:38.112Z,6.85
2022-12-25T07:39:41.115Z,7.13
2022-12-25T07:41:42.866Z,9.67
2022-12-25T07:43:44.413Z,7.43
2022-12-25T07:45:46.130Z,11.53
2022-12-25T07:47:47.744Z,5.97
2022-12-25T07:49:49.268Z,7.25
2022-12-25T07:51:50.832Z,5.97
2022-12-25T07:53:54.153Z,7.20
2022-12-25T07:56:02.481Z,8.75
2022-12-25T07:58:04.068Z,6.22
2022-12-25T08:00:10.376Z,6.05
2022-12-25T08:02:12.062Z,7.87
2022-12-25T08:04:13.931Z,8.30
2022-12-25T08:06:15.627Z,5.13
2022-12-25T08:08:17.209Z,5.63
2022-12-25T08:10:18.769Z,8.93
2022-12-25T08:12:21.737Z,7.20
2022-12-25T08:14:23.355Z,9.80
2022-12-25T08:16:25.385Z,6.30
2022-12-25T08:18:30.098Z,7.47
2022-12-25T08:20:32.005Z,6.38
2022-12-25T08:22:33.624Z,7.93
2022-12-25T08:24:35.227Z,7.55
2022-12-25T08:26:36.875Z,7.90
2022-12-25T08:28:40.321Z,6.40
2022-12-25T08:30:41.943Z,5.90
2022-12-25T08:32:43.552Z,7.83
2022-12-25T08:34:45.261Z,5.60
2022-12-25T08:36:46.901Z,6.00
2022-12-25T08:38:48.581Z,7.40
2022-12-25T08:40:50.143Z,7.90
2022-12-25T08:42:51.909Z,8.23
2022-12-25T08:44:54.836Z,6.55
2022-12-25T08:46:56.420Z,5.60
2022-12-25T08:48:58.236Z,10.20
2022-12-25T08:51:00.035Z,8.98
2022-12-25T08:53:02.054Z,6.23
2022-12-25T08:55:04.023Z,7.07
2022-12-25T08:57:05.575Z,6.70
2022-12-25T08:59:07.140Z,6.20
2022-12-25T09:01:10.760Z,7.03
2022-12-25T09:03:12.459Z,6.23
2022-12-25T09:05:14.212Z,6.60
2022-12-25T09:07:15.819Z,7.03
2022-12-25T09:09:17.458Z,5.45
2022-12-25T09:11:20.246Z,5.90
2022-12-25T09:13:21.904Z,6.93
2022-12-25T09:15:23.532Z,4.68
2022-12-25T09:17:29.954Z,4.83
2022-12-25T09:19:31.867Z,5.95
2022-12-25T09:21:33.647Z,5.65
2022-12-25T09:23:35.360Z,6.10
2022-12-25T09:25:36.983Z,6.37
2022-12-25T09:27:38.570Z,7.37
2022-12-25T09:29:40.278Z,5.97
2022-12-25T09:31:44.653Z,4.47
2022-12-25T09:33:47.774Z,7.57
2022-12-25T09:36:00.113Z,4.30
2022-12-25T09:38:02.496Z,7.23
2022-12-25T09:40:05.213Z,5.47
2022-12-25T09:42:12.137Z,5.60
2022-12-25T09:44:18.925Z,5.77
2022-12-25T09:46:23.548Z,32.63
2022-12-25T09:48:28.009Z,12.30
2022-12-25T09:50:40.057Z,7.07
2022-12-25T09:52:45.991Z,5.97
2022-12-25T09:54:56.481Z,6.20
2022-12-25T09:56:58.115Z,6.10
2022-12-25T09:58:59.876Z,5.65
2022-12-25T10:01:12.795Z,11.63
2022-12-25T10:03:29.193Z,7.87
2022-12-25T10:05:52.035Z,7.20
2022-12-25T10:08:03.200Z,6.70
2022-12-25T10:10:18.283Z,6.23
2022-12-25T10:12:37.923Z,7.30
2022-12-25T10:14:49.454Z,3.97
2022-12-25T10:17:01.948Z,4.80
2022-12-25T10:19:14.165Z,5.00
2022-12-25T10:21:18.791Z,4.53
2022-12-25T10:23:27.216Z,4.63
2022-12-25T10:25:28.949Z,3.77
2022-12-25T10:27:34.628Z,3.90
2022-12-25T10:29:36.288Z,3.57
2022-12-25T10:31:37.965Z,4.57
2022-12-25T10:33:39.605Z,5.33
2022-12-25T10:35:47.471Z,5.20
2022-12-25T10:37:57.404Z,5.17
2022-12-25T10:39:59.386Z,3.70
2022-12-25T10:42:28.225Z,3.80
2022-12-25T10:44:30.429Z,4.45
2022-12-25T10:46:32.293Z,6.83
2022-12-25T10:48:34.031Z,4.70
2022-12-25T10:50:42.772Z,3.80
2022-12-25T10:53:00.417Z,3.37
2022-12-25T10:55:11.472Z,5.80
2022-12-25T10:57:16.035Z,5.97
2022-12-25T10:59:17.598Z,4.18
2022-12-25T11:01:19.381Z,7.57
2022-12-25T11:03:23.510Z,7.50
2022-12-25T11:05:28.243Z,5.70
2022-12-25T11:07:31.067Z,5.73
2022-12-25T11:09:34.331Z,7.03
2022-12-25T11:11:36.112Z,4.63
2022-12-25T11:13:47.300Z,5.80
2022-12-25T11:15:50.097Z,4.00
2022-12-25T11:17:51.678Z,4.00
2022-12-25T11:19:57.030Z,6.37
2022-12-25T11:22:01.987Z,9.75
2022-12-25T11:24:05.111Z,15.63
2022-12-25T11:26:10.384Z,11.10
2022-12-25T11:28:12.298Z,9.40
2022-12-25T11:30:16.231Z,13.53
2022-12-25T11:32:22.476Z,16.43
2022-12-25T11:34:32.293Z,8.67
2022-12-25T11:36:43.580Z,8.73
2022-12-25T11:38:45.235Z,7.53
2022-12-25T11:40:49.926Z,8.30
2022-12-25T11:42:57.566Z,5.70
2022-12-25T11:45:05.351Z,5.33
2022-12-25T11:47:13.347Z,3.40
2022-12-25T11:49:18.607Z,5.20
2022-12-25T11:51:21.088Z,6.50
2022-12-25T11:53:29.155Z,4.40
2022-12-25T11:55:35.574Z,4.50
2022-12-25T11:57:39.094Z,5.27
2022-12-25T11:59:50.200Z,3.70
2022-12-25T12:01:57.547Z,5.93
2022-12-25T12:04:00.885Z,5.17
2022-12-25T12:06:08.687Z,5.90
2022-12-25T12:08:10.568Z,4.10
2022-12-25T12:10:18.280Z,7.30
2022-12-25T12:12:27.181Z,5.03
2022-12-25T12:14:42.155Z,4.40
2022-12-25T12:16:45.234Z,4.77
2022-12-25T12:18:50.277Z,4.60
2022-12-25T12:21:00.619Z,3.80
2022-12-25T12:23:05.025Z,4.17
2022-12-25T12:25:07.821Z,6.67
2022-12-25T12:27:22.281Z,5.00
2022-12-25T12:29:28.165Z,4.57
2022-12-25T12:31:38.573Z,6.53
2022-12-25T12:33:54.657Z,5.33
2022-12-25T12:35:57.519Z,7.23
2022-12-25T12:38:02.076Z,4.73
2022-12-25T12:40:05.795Z,5.97
2022-12-25T12:42:13.571Z,7.00
2022-12-25T12:44:17.466Z,8.33
2022-12-25T12:46:27.963Z,5.13
2022-12-25T12:48:40.317Z,5.40
2022-12-25T12:50:43.591Z,5.77
2022-12-25T12:52:45.436Z,10.33
2022-12-25T12:54:57.039Z,4.50
2022-12-25T12:57:00.885Z,5.83
2022-12-25T12:59:04.803Z,5.00
2022-12-25T13:01:14.247Z,5.53
2022-12-25T13:03:43.751Z,7.00
2022-12-25T13:05:50.541Z,8.43
2022-12-25T13:08:02.442Z,4.87
2022-12-25T13:10:16.912Z,9.27
2022-12-25T13:12:21.460Z,5.67
2022-12-25T13:14:24.946Z,4.77
2022-12-25T13:16:34.626Z,7.23
2022-12-25T13:18:39.501Z,3.60
2022-12-25T13:20:47.898Z,4.17
2022-12-25T13:22:52.958Z,7.83
2022-12-25T13:24:57.232Z,5.30
2022-12-25T13:27:00.198Z,4.53
2022-12-25T13:29:03.947Z,4.33
2022-12-25T13:31:15.652Z,5.07
2022-12-25T13:33:19.099Z,4.03
2022-12-25T13:35:23.149Z,4.57
2022-12-25T13:37:29.826Z,6.13
2022-12-25T13:39:33.854Z,4.50
2022-12-25T13:41:42.150Z,3.60
2022-12-25T13:43:44.805Z,3.87
2022-12-25T13:45:54.671Z,4.17
2022-12-25T13:47:57.031Z,4.87
2022-12-25T13:50:01.269Z,5.03
2022-12-25T13:52:11.650Z,4.57
2022-12-25T13:54:16.152Z,5.57
2022-12-25T13:56:17.772Z,5.40
2022-12-25T13:58:27.333Z,6.07
2022-12-25T14:00:33.306Z,7.70
2022-12-25T14:02:37.360Z,4.90
2022-12-25T14:04:44.517Z,3.80
2022-12-25T14:06:47.709Z,5.30
2022-12-25T14:08:50.967Z,5.53
2022-12-25T14:10:55.570Z,4.50
2022-12-25T14:13:00.864Z,5.37
2022-12-25T14:15:04.274Z,4.13
2022-12-25T14:17:06.053Z,5.33
2022-12-25T14:19:24.973Z,4.90
2022-12-25T14:21:29.797Z,6.23
2022-12-25T14:23:39.381Z,5.53
2022-12-25T14:25:42.743Z,4.00
2022-12-25T14:27:50.702Z,5.65
2022-12-25T14:29:55.646Z,4.90
2022-12-25T14:32:00.333Z,5.30
2022-12-25T14:34:04.996Z,6.10
2022-12-25T14:36:07.391Z,6.40
2022-12-25T14:38:17.303Z,3.90
2022-12-25T14:40:23.909Z,4.37
2022-12-25T14:42:27.403Z,5.27
2022-12-25T14:44:33.819Z,5.23
2022-12-25T14:46:35.452Z,5.00
2022-12-25T14:48:37.169Z,5.00
2022-12-25T14:50:43.046Z,6.20
2022-12-25T14:52:45.359Z,5.03
2022-12-25T14:54:49.805Z,4.83
2022-12-25T14:56:53.559Z,7.77
2022-12-25T14:58:56.936Z,4.93
2022-12-25T15:01:02.723Z,4.90
2022-12-25T15:03:06.866Z,3.73
2022-12-25T15:05:24.497Z,5.27
2022-12-25T15:07:29.493Z,5.77
2022-12-25T15:09:31.075Z,4.03
2022-12-25T15:11:33.017Z,5.83
2022-12-25T15:13:34.621Z,4.53
2022-12-25T15:15:36.271Z,5.50
2022-12-25T15:17:39.195Z,5.23
2022-12-25T15:19:40.783Z,5.37
2022-12-25T15:21:42.402Z,7.03
2022-12-25T15:23:44.404Z,4.70
2022-12-25T15:25:46.091Z,7.50
2022-12-25T15:27:49.158Z,4.43
2022-12-25T15:32:16.995Z,5.13
2022-12-25T15:34:20.863Z,5.67
2022-12-25T15:36:23.558Z,5.23
2022-12-25T15:38:25.250Z,5.30
2022-12-25T15:40:26.855Z,7.23
2022-12-25T15:42:28.514Z,4.47
2022-12-25T15:44:30.110Z,5.07
2022-12-25T15:46:32.354Z,6.07
2022-12-25T15:48:34.047Z,4.50
2022-12-25T15:50:36.989Z,6.87
2022-12-25T15:52:38.599Z,4.50
2022-12-25T15:54:40.261Z,8.80
2022-12-25T15:56:44.599Z,4.83
2022-12-25T15:58:46.186Z,5.17
2022-12-25T16:00:47.788Z,5.30
2022-12-25T16:02:49.894Z,5.30
2022-12-25T16:04:51.876Z,5.53
2022-12-25T16:06:55.691Z,5.60
2022-12-25T16:08:57.288Z,6.33
2022-12-25T16:10:58.803Z,4.73
2022-12-25T16:13:00.415Z,6.43
2022-12-25T16:15:02.096Z,11.03
2022-12-25T16:17:03.962Z,5.33
2022-12-25T16:19:05.944Z,5.27
2022-12-25T16:21:13.096Z,5.63
2022-12-25T16:23:16.080Z,5.40
2022-12-25T16:25:19.366Z,5.80
2022-12-25T16:27:21.327Z,5.77
2022-12-25T16:29:22.975Z,6.53
2022-12-25T16:31:24.531Z,5.37
2022-12-25T16:33:26.259Z,6.67
2022-12-25T16:35:27.857Z,6.60
2022-12-25T16:37:29.451Z,8.67
2022-12-25T16:39:33.035Z,8.57
2022-12-25T16:41:34.692Z,8.60
2022-12-25T16:43:36.253Z,8.60
2022-12-25T16:45:38.549Z,10.90
2022-12-25T16:47:42.928Z,8.83
2022-12-25T16:49:44.479Z,7.93
2022-12-25T16:51:46.124Z,7.70
2022-12-25T16:53:48.025Z,9.03
2022-12-25T16:55:50.887Z,7.73
2022-12-25T16:57:52.492Z,7.80
2022-12-25T16:59:54.084Z,7.60
2022-12-25T17:01:55.741Z,8.43
2022-12-25T17:03:59.105Z,8.83
2022-12-25T17:06:01.787Z,9.00
2022-12-25T17:08:03.537Z,7.77
2022-12-25T17:10:06.443Z,8.33
2022-12-25T17:12:09.579Z,8.17
2022-12-25T17:14:11.143Z,8.73
2022-12-25T17:16:14.772Z,8.10
2022-12-25T17:18:16.283Z,8.33
2022-12-25T17:20:17.863Z,8.43
2022-12-25T17:22:19.467Z,8.30
2022-12-25T17:24:21.594Z,8.50
2022-12-25T17:26:23.133Z,9.37
2022-12-25T17:28:26.012Z,9.37
2022-12-25T17:30:27.563Z,8.50
2022-12-25T17:32:29.118Z,10.23
2022-12-25T17:34:30.656Z,9.87
2022-12-25T17:36:32.988Z,10.93
2022-12-25T17:38:34.613Z,9.50
2022-12-25T17:40:36.353Z,7.97
2022-12-25T17:42:37.885Z,7.43
2022-12-25T17:44:40.804Z,8.15
2022-12-25T17:46:42.680Z,9.80
2022-12-25T17:48:44.692Z,5.80
2022-12-25T17:50:46.728Z,6.70
2022-12-25T17:52:48.305Z,7.57
2022-12-25T17:54:49.847Z,8.88
2022-12-25T17:56:51.381Z,13.07
2022-12-25T17:58:55.166Z,16.23
2022-12-25T18:00:58.133Z,22.60
2022-12-25T18:03:03.016Z,30.57
2022-12-25T18:05:10.604Z,34.50
2022-12-25T18:07:12.884Z,35.20
2022-12-25T18:09:14.445Z,33.58
2022-12-25T18:11:19.123Z,38.30
2022-12-25T18:13:20.677Z,37.80
2022-12-25T18:15:22.244Z,36.23
2022-12-25T18:17:25.221Z,41.80
2022-12-25T18:19:26.822Z,33.70
2022-12-25T18:21:28.674Z,33.35
2022-12-25T18:23:30.901Z,31.27
2022-12-25T18:25:32.535Z,30.63
2022-12-25T18:27:34.081Z,28.77
2022-12-25T18:29:35.675Z,27.95
2022-12-25T18:31:37.362Z,23.57
2022-12-25T18:33:40.877Z,22.63
2022-12-25T18:35:43.533Z,21.17
2022-12-25T18:37:45.196Z,23.58
2022-12-25T18:39:47.323Z,18.63
2022-12-25T18:41:48.927Z,20.47
2022-12-25T18:43:52.630Z,20.13
2022-12-25T18:45:57.642Z,18.80
2022-12-25T18:47:59.267Z,18.90
2022-12-25T18:50:02.362Z,17.77
2022-12-25T18:52:48.825Z,18.13
2022-12-25T18:54:25.858Z,16.50
2022-12-25T18:56:27.451Z,15.87
2022-12-25T18:58:29.153Z,16.07
2022-12-25T19:00:30.979Z,16.80
2022-12-25T19:02:32.705Z,15.38
2022-12-25T19:04:34.377Z,17.27
2022-12-25T19:06:37.346Z,15.80
2022-12-25T19:08:38.884Z,15.77
2022-12-25T19:10:43.635Z,16.50
2022-12-25T19:12:45.684Z,15.17
2022-12-25T19:14:48.541Z,15.03
2022-12-25T19:16:50.239Z,15.43
2022-12-25T19:18:52.111Z,15.60
2022-12-25T19:20:53.725Z,17.47
2022-12-25T19:22:56.627Z,15.30
2022-12-25T19:24:58.306Z,20.15
2022-12-25T19:27:01.371Z,20.50
2022-12-25T19:29:03.535Z,18.17
2022-12-25T19:31:07.556Z,18.00
2022-12-25T19:33:15.591Z,18.37
2022-12-25T19:35:19.153Z,16.53
2022-12-25T19:37:20.856Z,15.50
2022-12-25T19:39:23.772Z,17.10
2022-12-25T19:41:25.474Z,15.53
2022-12-25T19:43:28.060Z,16.97
2022-12-25T19:45:29.727Z,16.50
2022-12-25T19:47:31.357Z,15.57
2022-12-25T19:49:32.995Z,14.77
2022-12-25T19:51:37.345Z,17.37
2022-12-25T19:53:38.936Z,17.20
2022-12-25T19:55:41.912Z,17.10
2022-12-25T19:57:43.474Z,16.80
2022-12-25T19:59:45.215Z,18.10
2022-12-25T20:01:47.189Z,16.67
2022-12-25T20:03:49.485Z,16.30
2022-12-25T20:05:51.578Z,15.63
2022-12-25T20:07:53.934Z,15.17
2022-12-25T20:09:55.493Z,15.33
2022-12-25T20:12:01.539Z,15.20
2022-12-25T20:14:04.034Z,13.30
2022-12-25T20:16:06.594Z,16.17
2022-12-25T20:18:08.404Z,13.20
2022-12-25T20:20:11.003Z,12.73
2022-12-25T20:22:12.623Z,11.50
2022-12-25T20:24:14.183Z,11.27
2022-12-25T20:26:17.749Z,10.10
2022-12-25T20:28:20.753Z,10.77
2022-12-25T20:30:22.361Z,10.50
2022-12-25T20:32:23.997Z,10.40
2022-12-25T20:34:25.691Z,10.18
2022-12-25T20:36:31.196Z,11.85
2022-12-25T20:38:36.169Z,11.10
2022-12-25T20:41:24.023Z,9.73
2022-12-25T20:42:59.314Z,9.97
2022-12-25T20:45:03.536Z,10.60
2022-12-25T20:47:05.261Z,10.27
2022-12-25T20:49:07.304Z,10.30
2022-12-25T20:51:11.098Z,12.07
2022-12-25T20:53:12.720Z,10.90
2022-12-25T20:55:14.317Z,9.98
2022-12-25T20:57:15.962Z,10.83
2022-12-25T20:59:17.623Z,10.47
2022-12-25T21:01:20.755Z,9.95
2022-12-25T21:03:23.032Z,10.73
2022-12-25T21:05:24.670Z,10.60
2022-12-25T21:07:26.388Z,10.30
2022-12-25T21:09:28.251Z,11.53
2022-12-25T21:11:29.827Z,9.50
2022-12-25T21:13:33.227Z,11.82
2022-12-25T21:15:34.785Z,8.73
2022-12-25T21:17:37.708Z,10.95
2022-12-25T21:19:39.361Z,10.47
2022-12-25T21:21:40.965Z,8.93
2022-12-25T21:23:42.536Z,10.20
2022-12-25T21:25:44.380Z,8.30
2022-12-25T21:27:45.955Z,8.10
2022-12-25T21:29:47.487Z,9.00
2022-12-25T21:31:49.091Z,10.40
2022-12-25T21:33:53.299Z,8.40
2022-12-25T21:35:55.067Z,8.63
2022-12-25T21:37:56.799Z,8.03
2022-12-25T21:39:58.629Z,8.95
2022-12-25T21:42:00.194Z,9.40
2022-12-25T21:44:02.198Z,8.83
2022-12-25T21:46:04.769Z,9.20
2022-12-25T21:48:06.662Z,8.53
2022-12-25T21:50:10.694Z,8.77
2022-12-25T21:52:12.469Z,8.60
2022-12-25T21:54:14.845Z,8.70
2022-12-25T21:56:17.209Z,8.50
2022-12-25T21:58:18.769Z,9.45
2022-12-25T22:00:20.749Z,8.48
2022-12-25T22:02:22.476Z,8.75
2022-12-25T22:04:24.237Z,7.00
2022-12-25T22:06:27.166Z,8.43
2022-12-25T22:08:29.888Z,8.67
2022-12-25T22:10:31.455Z,8.80
2022-12-25T22:12:34.521Z,7.93
2022-12-25T22:14:50.522Z,8.00
2022-12-25T22:16:55.207Z,7.70
2022-12-25T22:18:56.788Z,7.53
2022-12-25T22:20:58.326Z,7.80
2022-12-25T22:23:01.475Z,8.40
2022-12-25T22:25:05.612Z,8.40
2022-12-25T22:27:07.270Z,9.30
2022-12-25T22:29:08.833Z,9.90
2022-12-25T22:31:10.498Z,7.97
2022-12-25T22:33:13.202Z,8.00
2022-12-25T22:35:15.046Z,7.80
2022-12-25T22:37:18.204Z,9.43
2022-12-25T22:39:21.200Z,7.83
2022-12-25T22:41:22.741Z,7.30
2022-12-25T22:43:43.337Z,7.30
2022-12-25T22:45:46.333Z,7.28
2022-12-25T22:47:48.002Z,6.63
2022-12-25T22:49:49.671Z,10.00
2022-12-25T22:51:52.033Z,7.30
2022-12-25T22:53:57.396Z,6.83
2022-12-25T22:56:03.353Z,7.17
2022-12-25T22:58:04.882Z,6.40
2022-12-25T23:00:08.583Z,6.93
2022-12-25T23:02:10.231Z,6.47
2022-12-25T23:04:12.431Z,6.77
2022-12-25T23:06:14.035Z,5.80
2022-12-25T23:08:15.625Z,7.38
2022-12-25T23:10:17.268Z,8.20
2022-12-25T23:12:20.208Z,6.80
2022-12-25T23:14:21.854Z,6.47
2022-12-25T23:16:23.904Z,6.23
2022-12-25T23:18:25.524Z,6.63
2022-12-25T23:20:27.051Z,8.53
2022-12-25T23:22:28.608Z,7.90
2022-12-25T23:24:30.171Z,6.90
2022-12-25T23:26:31.752Z,8.73
2022-12-25T23:28:35.338Z,6.63
2022-12-25T23:30:36.985Z,7.38
2022-12-25T23:32:38.977Z,7.03
2022-12-25T23:34:44.961Z,6.23
2022-12-25T23:36:46.590Z,6.73
2022-12-25T23:38:48.095Z,6.80
2022-12-25T23:40:49.726Z,6.83
2022-12-25T23:42:51.303Z,7.60
2022-12-25T23:44:54.144Z,6.17
2022-12-25T23:46:56.639Z,5.83
2022-12-25T23:48:58.278Z,7.90
2022-12-25T23:51:02.672Z,7.32
2022-12-25T23:53:04.239Z,6.63
2022-12-25T23:55:07.142Z,9.90
2022-12-25T23:57:08.858Z,7.40
2022-12-25T23:59:11.570Z,7.28
